Time;durP1;ratioP1;P1;durP2;ratioP2;P2;SDS_P1;SDS_P2;PMS_P1;PMS_P2;Temp;Humidity;BMP_temperature;BMP_pressure;BME280_temperature;BME280_humidity;BME280_pressure;Samples;Min_cycle;Max_cycle;Signal;HPM_P1;HPM_P2
2022/03/15 00:02:01;;;;;;;;;;;;;;;2.27;64.54;101632.44;6242838;23;19920;-80
2022/03/15 00:04:27;;;;;;;;;;;;;;;2.21;64.40;101631.09;6243399;23;19981;-80
2022/03/15 00:06:53;;;;;;;;;;;;;;;2.23;64.24;101635.06;6243558;23;19915;-79
2022/03/15 00:09:18;;;;;;;;;;;;;;;2.27;63.58;101635.19;6243292;23;19922;-79
2022/03/15 00:11:46;;;;;;;;;;;;;;;2.26;64.37;101641.81;6243621;23;19923;-79
2022/03/15 00:14:14;;;;;;;;;;;;;;;2.26;63.93;101628.13;6243497;23;19911;-80
2022/03/15 00:16:42;;;;;;;;;;;;;;;2.26;63.91;101628.94;6243153;23;20330;-79
2022/03/15 00:19:07;;;;;;;;;;;;;;;2.26;63.65;101620.72;6243399;23;19947;-79
2022/03/15 00:21:32;;;;;;;;;;;;;;;2.32;64.23;101629.50;6243410;23;20417;-80
2022/03/15 00:23:59;;;;;;;;;;;;;;;2.35;64.05;101626.06;6216250;23;19911;-79
2022/03/15 00:26:25;;;;;;;;;;;;;;;2.44;63.20;101624.00;6243620;23;19951;-79
2022/03/15 00:28:51;;;;;;;;;;;;;;;2.54;62.92;101612.59;6216028;23;19916;-79
2022/03/15 00:31:16;;;;;;;;;;;;;;;2.56;63.02;101610.28;6243510;23;19978;-79
2022/03/15 00:33:43;;;;;;;;;;;;;;;2.53;62.69;101605.50;6242810;23;19927;-80
2022/03/15 00:36:08;;;;;;;;;;;;;;;2.54;62.61;101601.63;6216324;23;19915;-79
2022/03/15 00:38:34;;;;;;;;;;;;;;;2.59;61.85;101614.31;6243745;23;20245;-80
2022/03/15 00:41:00;;;;;;;;;;;;;;;2.68;60.61;101613.03;6243019;23;19939;-79
2022/03/15 00:43:25;;;;;;;;;;;;;;;2.76;60.26;101614.81;6242904;23;19916;-80
2022/03/15 00:45:51;;;;;;;;;;;;;;;2.81;59.73;101603.63;6243670;23;19923;-79
2022/03/15 00:48:19;;;;;;;;;;;;;;;2.88;59.51;101604.97;6242654;23;19943;-79
2022/03/15 00:50:44;;;;;;;;;;;;;;;2.92;59.38;101606.69;6243714;23;19919;-79
2022/03/15 00:53:10;;;;;;;;;;;;;;;2.92;59.61;101605.88;6217504;23;19916;-79
2022/03/15 00:55:37;;;;;;;;;;;;;;;2.89;59.56;101596.41;6245349;23;20018;-79
2022/03/15 00:58:05;;;;;;;;;;;;;;;2.90;59.52;101600.75;6244942;23;19911;-80
2022/03/15 01:00:31;;;;;;;;;;;;;;;2.89;59.59;101601.91;6245317;23;19974;-80
2022/03/15 01:02:57;;;;;;;;;;;;;;;2.92;59.46;101598.44;6244836;23;19919;-79
2022/03/15 01:05:22;;;;;;;;;;;;;;;2.93;59.27;101597.31;6245187;23;19939;-80
2022/03/15 01:07:48;;;;;;;;;;;;;;;2.86;60.05;101596.31;6244979;23;20249;-80
2022/03/15 01:10:13;;;;;;;;;;;;;;;2.77;60.00;101589.03;6217504;23;19919;-79
2022/03/15 01:12:38;;;;;;;;;;;;;;;2.71;59.86;101587.66;6244994;23;19994;-79
2022/03/15 01:15:06;;;;;;;;;;;;;;;2.66;60.22;101587.91;6244843;23;19995;-80
2022/03/15 01:17:32;;;;;;;;;;;;;;;2.63;60.75;101593.31;6245220;23;19922;-79
2022/03/15 01:19:57;;;;;;;;;;;;;;;2.65;61.24;101585.50;6244981;23;20219;-79
2022/03/15 01:22:23;;;;;;;;;;;;;;;2.66;61.76;101582.44;6217901;23;19945;-79
2022/03/15 01:24:48;;;;;;;;;;;;;;;2.69;61.67;101579.00;6217364;23;19969;-79
2022/03/15 01:27:15;;;;;;;;;;;;;;;2.68;61.69;101574.66;6244830;23;19995;-79
2022/03/15 01:29:41;;;;;;;;;;;;;;;2.65;61.87;101575.34;6244851;23;19926;-80
2022/03/15 01:32:07;;;;;;;;;;;;;;;2.67;61.75;101573.06;6217545;23;19916;-80
2022/03/15 01:34:32;;;;;;;;;;;;;;;2.67;62.22;101583.25;6244723;23;19915;-79
2022/03/15 01:36:58;;;;;;;;;;;;;;;2.65;62.67;101580.84;6217979;23;20307;-79
2022/03/15 01:39:26;;;;;;;;;;;;;;;2.66;62.55;101565.19;6217517;23;20296;-79
2022/03/15 01:41:53;;;;;;;;;;;;;;;2.64;63.17;101568.28;6244574;23;19986;-80
2022/03/15 01:44:21;;;;;;;;;;;;;;;2.64;63.40;101573.75;6244290;23;20005;-79
2022/03/15 01:46:47;;;;;;;;;;;;;;;2.64;63.56;101573.75;6244467;23;20265;-79
2022/03/15 01:49:18;;;;;;;;;;;;;;;2.61;63.14;101576.41;6244563;23;20314;-79
2022/03/15 01:51:46;;;;;;;;;;;;;;;2.58;63.12;101577.91;6244834;23;19915;-80
2022/03/15 01:54:12;;;;;;;;;;;;;;;2.59;63.30;101576.72;6218019;23;19994;-79
2022/03/15 01:56:41;;;;;;;;;;;;;;;2.59;63.45;101568.50;6217848;23;19951;-79
2022/03/15 01:59:09;;;;;;;;;;;;;;;2.56;63.57;101577.44;6217279;23;19919;-79
2022/03/15 02:01:47;;;;;;;;;;;;;;;2.56;63.89;101573.88;6223024;22;20210;-88
2022/03/15 02:04:15;;;;;;;;;;;;;;;2.52;64.25;101560.09;6266674;23;19982;-78
2022/03/15 02:06:44;;;;;;;;;;;;;;;2.49;64.43;101570.94;6242587;23;19916;-80
2022/03/15 02:09:13;;;;;;;;;;;;;;;2.48;65.71;101561.13;6242015;23;19911;-80
2022/03/15 02:11:39;;;;;;;;;;;;;;;2.46;66.87;101572.44;6251875;23;20284;-80
2022/03/15 02:14:05;;;;;;;;;;;;;;;2.47;67.17;101570.50;6244149;23;19919;-80
2022/03/15 02:16:31;;;;;;;;;;;;;;;2.47;67.48;101567.75;6244554;23;19916;-80
2022/03/15 02:18:58;;;;;;;;;;;;;;;2.48;67.23;101575.63;6244650;23;19911;-80
2022/03/15 02:21:24;;;;;;;;;;;;;;;2.45;66.89;101564.56;6218345;23;20360;-81
2022/03/15 02:23:50;;;;;;;;;;;;;;;2.43;67.00;101564.88;6244251;23;19995;-80
2022/03/15 02:26:16;;;;;;;;;;;;;;;2.44;67.76;101552.81;6245492;23;19939;-80
2022/03/15 02:28:41;;;;;;;;;;;;;;;2.43;67.66;101556.66;6245548;23;20219;-81
2022/03/15 02:31:07;;;;;;;;;;;;;;;2.41;67.47;101561.72;6245913;23;19911;-80
2022/03/15 02:33:32;;;;;;;;;;;;;;;2.37;68.34;101563.53;6244323;23;19943;-80
2022/03/15 02:35:58;;;;;;;;;;;;;;;2.41;67.83;101558.97;6244154;23;19961;-80
2022/03/15 02:38:23;;;;;;;;;;;;;;;2.44;68.02;101566.50;6244321;23;19943;-80
